sensor_id;sensor_type;location;lat;lon;timestamp;pressure;altitude;pressure_sealevel;temperature;humidity
23635;BME280;11994;51.038;16.974;2023-04-25T00:00:16;99198.09;;;10.57;74.06
23635;BME280;11994;51.038;16.974;2023-04-25T00:02:42;99195.06;;;10.58;73.96
23635;BME280;11994;51.038;16.974;2023-04-25T00:05:07;99198.22;;;10.58;74.04
23635;BME280;11994;51.038;16.974;2023-04-25T00:07:33;99195.99;;;10.57;73.91
23635;BME280;11994;51.038;16.974;2023-04-25T00:09:58;99195.22;;;10.54;73.96
23635;BME280;11994;51.038;16.974;2023-04-25T00:12:24;99193.38;;;10.52;73.93
23635;BME280;11994;51.038;16.974;2023-04-25T00:14:49;99195.25;;;10.49;73.90
23635;BME280;11994;51.038;16.974;2023-04-25T00:17:15;99195.02;;;10.46;73.88
23635;BME280;11994;51.038;16.974;2023-04-25T00:19:41;99200.36;;;10.44;73.78
23635;BME280;11994;51.038;16.974;2023-04-25T00:22:06;99198.86;;;10.42;73.79
23635;BME280;11994;51.038;16.974;2023-04-25T00:24:32;99200.17;;;10.40;73.85
23635;BME280;11994;51.038;16.974;2023-04-25T00:26:57;99203.24;;;10.37;73.91
23635;BME280;11994;51.038;16.974;2023-04-25T00:29:22;99196.75;;;10.33;73.88
23635;BME280;11994;51.038;16.974;2023-04-25T00:31:48;99202.08;;;10.31;73.89
23635;BME280;11994;51.038;16.974;2023-04-25T00:34:13;99201.49;;;10.28;74.00
23635;BME280;11994;51.038;16.974;2023-04-25T00:36:38;99197.91;;;10.26;73.99
23635;BME280;11994;51.038;16.974;2023-04-25T00:39:03;99203.95;;;10.24;73.86
23635;BME280;11994;51.038;16.974;2023-04-25T00:41:29;99201.07;;;10.21;73.79
23635;BME280;11994;51.038;16.974;2023-04-25T00:43:55;99203.77;;;10.19;73.89
23635;BME280;11994;51.038;16.974;2023-04-25T00:46:21;99205.41;;;10.17;73.80
23635;BME280;11994;51.038;16.974;2023-04-25T00:48:46;99205.59;;;10.17;73.82
23635;BME280;11994;51.038;16.974;2023-04-25T00:51:13;99205.02;;;10.18;73.84
23635;BME280;11994;51.038;16.974;2023-04-25T00:53:40;99206.41;;;10.19;73.85
23635;BME280;11994;51.038;16.974;2023-04-25T00:56:06;99208.70;;;10.18;73.81
23635;BME280;11994;51.038;16.974;2023-04-25T00:58:31;99211.04;;;10.17;73.74
23635;BME280;11994;51.038;16.974;2023-04-25T01:00:57;99207.99;;;10.14;73.77
23635;BME280;11994;51.038;16.974;2023-04-25T01:03:22;99209.44;;;10.13;73.69
23635;BME280;11994;51.038;16.974;2023-04-25T01:05:49;99213.90;;;10.10;73.53
23635;BME280;11994;51.038;16.974;2023-04-25T01:08:15;99210.23;;;10.06;73.52
23635;BME280;11994;51.038;16.974;2023-04-25T01:10:41;99208.25;;;10.02;73.60
23635;BME280;11994;51.038;16.974;2023-04-25T01:13:06;99214.81;;;9.99;73.71
23635;BME280;11994;51.038;16.974;2023-04-25T01:15:31;99212.95;;;9.97;73.75
23635;BME280;11994;51.038;16.974;2023-04-25T01:17:57;99209.34;;;9.96;73.88
23635;BME280;11994;51.038;16.974;2023-04-25T01:20:23;99212.36;;;9.94;73.85
23635;BME280;11994;51.038;16.974;2023-04-25T01:22:49;99210.52;;;9.92;73.97
23635;BME280;11994;51.038;16.974;2023-04-25T01:25:15;99210.54;;;9.92;73.84
23635;BME280;11994;51.038;16.974;2023-04-25T01:27:40;99210.71;;;9.92;74.01
23635;BME280;11994;51.038;16.974;2023-04-25T01:30:06;99211.91;;;9.92;74.10
23635;BME280;11994;51.038;16.974;2023-04-25T01:32:31;99215.08;;;9.92;74.03
23635;BME280;11994;51.038;16.974;2023-04-25T01:35:03;99218.80;;;9.90;74.20
23635;BME280;11994;51.038;16.974;2023-04-25T01:37:29;99219.56;;;9.89;74.16
23635;BME280;11994;51.038;16.974;2023-04-25T01:39:54;99221.10;;;9.85;74.26
23635;BME280;11994;51.038;16.974;2023-04-25T01:42:20;99223.80;;;9.83;74.09
23635;BME280;11994;51.038;16.974;2023-04-25T01:44:45;99233.34;;;9.80;74.19
23635;BME280;11994;51.038;16.974;2023-04-25T01:47:10;99224.75;;;9.76;74.28
23635;BME280;11994;51.038;16.974;2023-04-25T01:49:36;99222.73;;;9.74;74.24
23635;BME280;11994;51.038;16.974;2023-04-25T01:52:01;99226.45;;;9.73;74.36
23635;BME280;11994;51.038;16.974;2023-04-25T01:54:26;99227.76;;;9.70;74.43
23635;BME280;11994;51.038;16.974;2023-04-25T01:56:52;99228.86;;;9.69;74.45
23635;BME280;11994;51.038;16.974;2023-04-25T01:59:18;99226.98;;;9.67;74.51
23635;BME280;11994;51.038;16.974;2023-04-25T02:01:44;99233.65;;;9.66;74.53
23635;BME280;11994;51.038;16.974;2023-04-25T02:04:10;99234.67;;;9.62;74.45
23635;BME280;11994;51.038;16.974;2023-04-25T02:06:35;99236.40;;;9.58;74.48
23635;BME280;11994;51.038;16.974;2023-04-25T02:09:00;99236.36;;;9.54;74.46
23635;BME280;11994;51.038;16.974;2023-04-25T02:11:25;99238.40;;;9.51;74.61
23635;BME280;11994;51.038;16.974;2023-04-25T02:13:51;99238.48;;;9.49;74.47
23635;BME280;11994;51.038;16.974;2023-04-25T02:16:16;99234.70;;;9.47;74.69
23635;BME280;11994;51.038;16.974;2023-04-25T02:18:41;99230.72;;;9.46;74.75
23635;BME280;11994;51.038;16.974;2023-04-25T02:21:07;99231.67;;;9.43;74.80
23635;BME280;11994;51.038;16.974;2023-04-25T02:23:32;99227.05;;;9.41;74.86
23635;BME280;11994;51.038;16.974;2023-04-25T02:25:58;99226.44;;;9.39;74.89
23635;BME280;11994;51.038;16.974;2023-04-25T02:28:23;99227.69;;;9.38;75.10
23635;BME280;11994;51.038;16.974;2023-04-25T02:30:50;99229.83;;;9.37;75.15
23635;BME280;11994;51.038;16.974;2023-04-25T02:33:16;99225.30;;;9.36;75.31
23635;BME280;11994;51.038;16.974;2023-04-25T02:35:42;99226.27;;;9.34;75.27
23635;BME280;11994;51.038;16.974;2023-04-25T02:38:07;99227.88;;;9.32;75.46
23635;BME280;11994;51.038;16.974;2023-04-25T02:40:32;99226.50;;;9.32;75.34
23635;BME280;11994;51.038;16.974;2023-04-25T02:42:57;99227.85;;;9.28;75.27
23635;BME280;11994;51.038;16.974;2023-04-25T02:45:23;99230.63;;;9.23;75.20
23635;BME280;11994;51.038;16.974;2023-04-25T02:47:48;99232.04;;;9.18;75.31
23635;BME280;11994;51.038;16.974;2023-04-25T02:50:13;99235.84;;;9.14;75.37
23635;BME280;11994;51.038;16.974;2023-04-25T02:52:38;99235.92;;;9.12;75.42
23635;BME280;11994;51.038;16.974;2023-04-25T02:55:04;99233.64;;;9.07;75.54
23635;BME280;11994;51.038;16.974;2023-04-25T02:57:29;99235.59;;;9.06;75.66
23635;BME280;11994;51.038;16.974;2023-04-25T02:59:54;99228.65;;;9.05;75.82
23635;BME280;11994;51.038;16.974;2023-04-25T03:02:20;99228.14;;;9.05;75.76
23635;BME280;11994;51.038;16.974;2023-04-25T03:04:45;99226.58;;;9.05;75.78
23635;BME280;11994;51.038;16.974;2023-04-25T03:07:11;99226.08;;;9.03;75.80
23635;BME280;11994;51.038;16.974;2023-04-25T03:09:36;99220.52;;;9.03;75.76
23635;BME280;11994;51.038;16.974;2023-04-25T03:12:01;99227.38;;;9.01;75.81
23635;BME280;11994;51.038;16.974;2023-04-25T03:14:26;99224.35;;;8.98;75.84
23635;BME280;11994;51.038;16.974;2023-04-25T03:16:52;99225.05;;;8.98;75.83
23635;BME280;11994;51.038;16.974;2023-04-25T03:19:17;99221.77;;;8.97;75.82
23635;BME280;11994;51.038;16.974;2023-04-25T03:21:43;99225.46;;;8.96;75.76
23635;BME280;11994;51.038;16.974;2023-04-25T03:24:08;99221.48;;;8.95;75.68
23635;BME280;11994;51.038;16.974;2023-04-25T03:26:34;99219.81;;;8.93;75.78
23635;BME280;11994;51.038;16.974;2023-04-25T03:28:59;99222.27;;;8.92;75.81
23635;BME280;11994;51.038;16.974;2023-04-25T03:31:24;99222.14;;;8.91;75.51
23635;BME280;11994;51.038;16.974;2023-04-25T03:33:49;99222.88;;;8.89;75.59
23635;BME280;11994;51.038;16.974;2023-04-25T03:36:15;99226.40;;;8.89;75.52
23635;BME280;11994;51.038;16.974;2023-04-25T03:38:40;99227.60;;;8.89;75.57
23635;BME280;11994;51.038;16.974;2023-04-25T03:41:08;99230.79;;;8.88;75.48
23635;BME280;11994;51.038;16.974;2023-04-25T03:43:33;99233.44;;;8.87;75.55
23635;BME280;11994;51.038;16.974;2023-04-25T03:45:59;99239.54;;;8.87;75.46
23635;BME280;11994;51.038;16.974;2023-04-25T03:48:25;99234.49;;;8.86;75.63
23635;BME280;11994;51.038;16.974;2023-04-25T03:50:51;99234.33;;;8.86;75.60
23635;BME280;11994;51.038;16.974;2023-04-25T03:53:16;99232.29;;;8.85;75.45
23635;BME280;11994;51.038;16.974;2023-04-25T03:55:41;99232.28;;;8.84;75.47
23635;BME280;11994;51.038;16.974;2023-04-25T03:58:06;99240.12;;;8.85;75.40
23635;BME280;11994;51.038;16.974;2023-04-25T04:00:33;99243.40;;;8.86;75.35
23635;BME280;11994;51.038;16.974;2023-04-25T04:02:58;99246.02;;;8.86;75.42
23635;BME280;11994;51.038;16.974;2023-04-25T04:05:23;99241.30;;;8.86;75.42
23635;BME280;11994;51.038;16.974;2023-04-25T04:07:49;99248.59;;;8.87;75.44
23635;BME280;11994;51.038;16.974;2023-04-25T04:10:14;99254.86;;;8.88;75.39
23635;BME280;11994;51.038;16.974;2023-04-25T04:12:39;99252.06;;;8.88;75.44
23635;BME280;11994;51.038;16.974;2023-04-25T04:15:05;99257.48;;;8.88;75.29
23635;BME280;11994;51.038;16.974;2023-04-25T04:17:31;99258.43;;;8.90;75.31
23635;BME280;11994;51.038;16.974;2023-04-25T04:19:57;99265.96;;;8.94;75.50
23635;BME280;11994;51.038;16.974;2023-04-25T04:22:22;99264.65;;;8.97;75.50
23635;BME280;11994;51.038;16.974;2023-04-25T04:24:48;99264.95;;;8.99;75.39
23635;BME280;11994;51.038;16.974;2023-04-25T04:27:14;99266.95;;;9.02;75.47
23635;BME280;11994;51.038;16.974;2023-04-25T04:29:40;99269.19;;;9.03;75.48
23635;BME280;11994;51.038;16.974;2023-04-25T04:32:05;99267.51;;;9.00;75.39
23635;BME280;11994;51.038;16.974;2023-04-25T04:34:30;99270.83;;;9.01;75.52
23635;BME280;11994;51.038;16.974;2023-04-25T04:36:56;99272.19;;;9.01;75.38
23635;BME280;11994;51.038;16.974;2023-04-25T04:39:22;99269.43;;;9.01;75.34
23635;BME280;11994;51.038;16.974;2023-04-25T04:41:48;99269.44;;;9.00;75.30
23635;BME280;11994;51.038;16.974;2023-04-25T04:44:13;99272.77;;;8.99;75.20
23635;BME280;11994;51.038;16.974;2023-04-25T04:46:39;99273.30;;;8.99;75.22
23635;BME280;11994;51.038;16.974;2023-04-25T04:49:08;99269.95;;;9.01;75.26
23635;BME280;11994;51.038;16.974;2023-04-25T04:51:33;99274.00;;;9.00;75.07
23635;BME280;11994;51.038;16.974;2023-04-25T04:53:58;99271.16;;;9.01;75.15
23635;BME280;11994;51.038;16.974;2023-04-25T04:56:27;99264.13;;;9.02;75.12
23635;BME280;11994;51.038;16.974;2023-04-25T04:58:53;99265.67;;;9.03;75.06
23635;BME280;11994;51.038;16.974;2023-04-25T05:01:18;99266.39;;;9.08;74.91
23635;BME280;11994;51.038;16.974;2023-04-25T05:03:43;99268.13;;;9.13;74.88
23635;BME280;11994;51.038;16.974;2023-04-25T05:06:09;99267.83;;;9.17;74.87
23635;BME280;11994;51.038;16.974;2023-04-25T05:08:34;99269.04;;;9.23;74.82
23635;BME280;11994;51.038;16.974;2023-04-25T05:10:59;99270.52;;;9.26;74.66
23635;BME280;11994;51.038;16.974;2023-04-25T05:13:24;99272.73;;;9.27;74.56
23635;BME280;11994;51.038;16.974;2023-04-25T05:15:50;99270.10;;;9.28;74.41
23635;BME280;11994;51.038;16.974;2023-04-25T05:18:15;99271.13;;;9.29;74.36
23635;BME280;11994;51.038;16.974;2023-04-25T05:20:40;99272.49;;;9.29;74.37
23635;BME280;11994;51.038;16.974;2023-04-25T05:23:06;99268.48;;;9.29;74.35
23635;BME280;11994;51.038;16.974;2023-04-25T05:25:31;99271.23;;;9.30;74.22
23635;BME280;11994;51.038;16.974;2023-04-25T05:27:56;99270.16;;;9.31;74.26
23635;BME280;11994;51.038;16.974;2023-04-25T05:30:22;99265.92;;;9.33;74.13
23635;BME280;11994;51.038;16.974;2023-04-25T05:32:47;99267.95;;;9.34;74.06
23635;BME280;11994;51.038;16.974;2023-04-25T05:35:13;99267.98;;;9.38;74.14
23635;BME280;11994;51.038;16.974;2023-04-25T05:37:38;99264.85;;;9.43;73.96
23635;BME280;11994;51.038;16.974;2023-04-25T05:40:03;99266.70;;;9.45;73.92
23635;BME280;11994;51.038;16.974;2023-04-25T05:42:32;99261.02;;;9.48;73.77
23635;BME280;11994;51.038;16.974;2023-04-25T05:44:57;99262.51;;;9.50;73.69
23635;BME280;11994;51.038;16.974;2023-04-25T05:47:22;99263.73;;;9.55;73.71
23635;BME280;11994;51.038;16.974;2023-04-25T05:49:47;99264.48;;;9.59;73.61
23635;BME280;11994;51.038;16.974;2023-04-25T05:52:13;99265.05;;;9.63;73.44
23635;BME280;11994;51.038;16.974;2023-04-25T05:54:38;99265.03;;;9.68;73.77
23635;BME280;11994;51.038;16.974;2023-04-25T05:57:03;99267.13;;;9.73;73.63
23635;BME280;11994;51.038;16.974;2023-04-25T05:59:29;99271.66;;;9.78;73.35
23635;BME280;11994;51.038;16.974;2023-04-25T06:01:54;99272.30;;;9.79;73.24
23635;BME280;11994;51.038;16.974;2023-04-25T06:04:19;99273.45;;;9.81;72.89
23635;BME280;11994;51.038;16.974;2023-04-25T06:06:45;99268.73;;;9.82;72.81
23635;BME280;11994;51.038;16.974;2023-04-25T06:09:10;99268.48;;;9.83;72.58
23635;BME280;11994;51.038;16.974;2023-04-25T06:11:35;99270.90;;;9.84;72.55
23635;BME280;11994;51.038;16.974;2023-04-25T06:14:00;99269.52;;;9.84;72.22
23635;BME280;11994;51.038;16.974;2023-04-25T06:16:26;99269.66;;;9.85;72.40
23635;BME280;11994;51.038;16.974;2023-04-25T06:18:51;99268.41;;;9.90;72.37
23635;BME280;11994;51.038;16.974;2023-04-25T06:21:16;99268.51;;;9.93;72.01
23635;BME280;11994;51.038;16.974;2023-04-25T06:23:42;99269.55;;;9.97;71.96
23635;BME280;11994;51.038;16.974;2023-04-25T06:26:07;99267.66;;;10.07;71.97
23635;BME280;11994;51.038;16.974;2023-04-25T06:28:32;99269.83;;;10.14;71.66
23635;BME280;11994;51.038;16.974;2023-04-25T06:30:57;99268.44;;;10.19;71.57
23635;BME280;11994;51.038;16.974;2023-04-25T06:33:23;99268.41;;;10.24;71.39
23635;BME280;11994;51.038;16.974;2023-04-25T06:35:49;99267.21;;;10.28;71.30
23635;BME280;11994;51.038;16.974;2023-04-25T06:38:15;99262.99;;;10.33;71.51
23635;BME280;11994;51.038;16.974;2023-04-25T06:40:40;99262.70;;;10.41;71.77
23635;BME280;11994;51.038;16.974;2023-04-25T06:43:05;99261.09;;;10.47;71.47
23635;BME280;11994;51.038;16.974;2023-04-25T06:45:30;99264.10;;;10.50;71.27
23635;BME280;11994;51.038;16.974;2023-04-25T06:47:56;99262.04;;;10.53;71.17
23635;BME280;11994;51.038;16.974;2023-04-25T06:50:21;99265.13;;;10.55;71.05
23635;BME280;11994;51.038;16.974;2023-04-25T06:52:46;99261.86;;;10.58;70.76
23635;BME280;11994;51.038;16.974;2023-04-25T06:55:12;99257.64;;;10.63;70.87
23635;BME280;11994;51.038;16.974;2023-04-25T06:57:37;99256.77;;;10.67;70.42
23635;BME280;11994;51.038;16.974;2023-04-25T07:00:03;99253.98;;;10.63;70.41
23635;BME280;11994;51.038;16.974;2023-04-25T07:02:30;99258.02;;;10.62;70.46
23635;BME280;11994;51.038;16.974;2023-04-25T07:04:55;99252.70;;;10.68;70.53
23635;BME280;11994;51.038;16.974;2023-04-25T07:07:24;99249.36;;;10.73;70.42
23635;BME280;11994;51.038;16.974;2023-04-25T07:09:50;99249.55;;;10.77;70.31
23635;BME280;11994;51.038;16.974;2023-04-25T07:12:15;99248.83;;;10.78;69.83
23635;BME280;11994;51.038;16.974;2023-04-25T07:14:40;99246.90;;;10.74;68.89
23635;BME280;11994;51.038;16.974;2023-04-25T07:17:05;99244.08;;;10.65;68.84
23635;BME280;11994;51.038;16.974;2023-04-25T07:19:31;99247.23;;;10.61;68.97
23635;BME280;11994;51.038;16.974;2023-04-25T07:21:58;99250.35;;;10.57;69.00
23635;BME280;11994;51.038;16.974;2023-04-25T07:24:23;99256.59;;;10.54;69.41
23635;BME280;11994;51.038;16.974;2023-04-25T07:26:48;99252.56;;;10.54;69.32
23635;BME280;11994;51.038;16.974;2023-04-25T07:29:13;99255.90;;;10.54;69.39
23635;BME280;11994;51.038;16.974;2023-04-25T07:31:39;99256.58;;;10.55;69.39
23635;BME280;11994;51.038;16.974;2023-04-25T07:34:04;99254.23;;;10.52;68.79
23635;BME280;11994;51.038;16.974;2023-04-25T07:36:30;99254.45;;;10.51;68.58
23635;BME280;11994;51.038;16.974;2023-04-25T07:38:56;99253.13;;;10.53;68.83
23635;BME280;11994;51.038;16.974;2023-04-25T07:41:21;99253.34;;;10.57;68.89
23635;BME280;11994;51.038;16.974;2023-04-25T07:43:46;99252.89;;;10.64;69.13
23635;BME280;11994;51.038;16.974;2023-04-25T07:46:11;99248.43;;;10.70;68.95
23635;BME280;11994;51.038;16.974;2023-04-25T07:48:37;99251.27;;;10.73;68.93
23635;BME280;11994;51.038;16.974;2023-04-25T07:51:02;99252.78;;;10.75;68.84
23635;BME280;11994;51.038;16.974;2023-04-25T07:53:29;99249.15;;;10.78;68.83
23635;BME280;11994;51.038;16.974;2023-04-25T07:55:54;99251.13;;;10.82;68.94
23635;BME280;11994;51.038;16.974;2023-04-25T07:58:20;99245.58;;;10.85;68.91
23635;BME280;11994;51.038;16.974;2023-04-25T08:00:47;99248.90;;;10.89;69.17
23635;BME280;11994;51.038;16.974;2023-04-25T08:03:12;99249.98;;;10.97;69.09
23635;BME280;11994;51.038;16.974;2023-04-25T08:05:37;99247.05;;;11.04;69.20
23635;BME280;11994;51.038;16.974;2023-04-25T08:08:03;99250.31;;;11.10;69.11
23635;BME280;11994;51.038;16.974;2023-04-25T08:10:29;99246.61;;;11.15;68.94
23635;BME280;11994;51.038;16.974;2023-04-25T08:12:54;99249.14;;;11.17;68.82
23635;BME280;11994;51.038;16.974;2023-04-25T08:15:20;99251.20;;;11.18;68.93
23635;BME280;11994;51.038;16.974;2023-04-25T08:17:45;99251.88;;;11.18;68.98
23635;BME280;11994;51.038;16.974;2023-04-25T08:20:10;99253.02;;;11.20;68.93
23635;BME280;11994;51.038;16.974;2023-04-25T08:22:36;99257.42;;;11.20;68.63
23635;BME280;11994;51.038;16.974;2023-04-25T08:25:01;99259.05;;;11.19;68.57
23635;BME280;11994;51.038;16.974;2023-04-25T08:27:26;99259.71;;;11.24;68.67
23635;BME280;11994;51.038;16.974;2023-04-25T08:29:52;99255.34;;;11.28;68.58
23635;BME280;11994;51.038;16.974;2023-04-25T08:32:18;99256.66;;;11.34;68.51
23635;BME280;11994;51.038;16.974;2023-04-25T08:34:43;99260.44;;;11.43;68.57
23635;BME280;11994;51.038;16.974;2023-04-25T08:37:09;99261.46;;;11.52;68.99
23635;BME280;11994;51.038;16.974;2023-04-25T08:39:35;99260.74;;;11.70;68.81
23635;BME280;11994;51.038;16.974;2023-04-25T08:42:00;99265.64;;;11.82;68.15
23635;BME280;11994;51.038;16.974;2023-04-25T08:44:28;99266.83;;;11.82;67.45
23635;BME280;11994;51.038;16.974;2023-04-25T08:46:55;99268.48;;;11.81;67.60
23635;BME280;11994;51.038;16.974;2023-04-25T08:49:20;99264.81;;;11.85;67.41
23635;BME280;11994;51.038;16.974;2023-04-25T08:51:46;99259.70;;;11.97;67.88
23635;BME280;11994;51.038;16.974;2023-04-25T08:54:12;99263.33;;;12.13;67.77
23635;BME280;11994;51.038;16.974;2023-04-25T08:56:42;99263.36;;;12.24;67.30
23635;BME280;11994;51.038;16.974;2023-04-25T08:59:09;99264.38;;;12.28;66.50
23635;BME280;11994;51.038;16.974;2023-04-25T09:01:34;99264.30;;;12.26;65.76
23635;BME280;11994;51.038;16.974;2023-04-25T09:04:00;99260.75;;;12.19;66.02
23635;BME280;11994;51.038;16.974;2023-04-25T09:06:27;99264.08;;;12.31;66.39
23635;BME280;11994;51.038;16.974;2023-04-25T09:08:53;99264.88;;;12.36;65.55
23635;BME280;11994;51.038;16.974;2023-04-25T09:11:18;99264.45;;;12.34;65.52
23635;BME280;11994;51.038;16.974;2023-04-25T09:13:44;99266.59;;;12.30;65.61
23635;BME280;11994;51.038;16.974;2023-04-25T09:16:10;99267.64;;;12.33;65.64
23635;BME280;11994;51.038;16.974;2023-04-25T09:18:35;99265.09;;;12.47;65.83
23635;BME280;11994;51.038;16.974;2023-04-25T09:21:08;99260.25;;;12.64;65.54
23635;BME280;11994;51.038;16.974;2023-04-25T09:23:41;99262.10;;;12.76;65.28
23635;BME280;11994;51.038;16.974;2023-04-25T09:26:07;99265.30;;;12.79;65.10
23635;BME280;11994;51.038;16.974;2023-04-25T09:28:33;99265.32;;;12.82;64.95
23635;BME280;11994;51.038;16.974;2023-04-25T09:31:00;99267.00;;;12.84;65.22
23635;BME280;11994;51.038;16.974;2023-04-25T09:33:29;99273.69;;;12.83;64.66
23635;BME280;11994;51.038;16.974;2023-04-25T09:36:01;99272.95;;;12.70;64.33
23635;BME280;11994;51.038;16.974;2023-04-25T09:38:26;99274.61;;;12.57;64.12
23635;BME280;11994;51.038;16.974;2023-04-25T09:40:51;99268.66;;;12.49;63.98
23635;BME280;11994;51.038;16.974;2023-04-25T09:43:23;99269.02;;;12.45;64.30
23635;BME280;11994;51.038;16.974;2023-04-25T09:45:49;99272.94;;;12.44;64.73
23635;BME280;11994;51.038;16.974;2023-04-25T09:48:19;99267.69;;;12.47;64.87
23635;BME280;11994;51.038;16.974;2023-04-25T09:50:47;99263.95;;;12.48;64.54
23635;BME280;11994;51.038;16.974;2023-04-25T09:53:28;99268.55;;;12.48;64.50
23635;BME280;11994;51.038;16.974;2023-04-25T09:55:53;99269.63;;;12.51;64.11
23635;BME280;11994;51.038;16.974;2023-04-25T09:58:20;99269.89;;;12.53;64.06
23635;BME280;11994;51.038;16.974;2023-04-25T10:00:46;99271.76;;;12.62;64.13
23635;BME280;11994;51.038;16.974;2023-04-25T10:03:11;99270.35;;;12.69;63.88
23635;BME280;11994;51.038;16.974;2023-04-25T10:05:37;99270.63;;;12.71;63.84
23635;BME280;11994;51.038;16.974;2023-04-25T10:08:03;99273.96;;;12.67;63.67
23635;BME280;11994;51.038;16.974;2023-04-25T10:10:31;99277.27;;;12.67;63.19
23635;BME280;11994;51.038;16.974;2023-04-25T10:13:01;99275.15;;;12.75;63.44
23635;BME280;11994;51.038;16.974;2023-04-25T10:15:26;99274.89;;;12.81;62.99
23635;BME280;11994;51.038;16.974;2023-04-25T10:17:52;99273.95;;;12.74;63.15
23635;BME280;11994;51.038;16.974;2023-04-25T10:20:18;99272.53;;;12.67;63.55
23635;BME280;11994;51.038;16.974;2023-04-25T10:22:46;99273.00;;;12.65;63.90
23635;BME280;11994;51.038;16.974;2023-04-25T10:25:13;99271.98;;;12.64;63.88
23635;BME280;11994;51.038;16.974;2023-04-25T10:27:39;99267.14;;;12.63;63.50
23635;BME280;11994;51.038;16.974;2023-04-25T10:32:30;99263.62;;;12.77;63.59
23635;BME280;11994;51.038;16.974;2023-04-25T10:34:56;99268.40;;;12.99;63.00
23635;BME280;11994;51.038;16.974;2023-04-25T10:37:22;99255.14;;;13.08;62.56
23635;BME280;11994;51.038;16.974;2023-04-25T10:39:49;99251.94;;;13.09;62.58
23635;BME280;11994;51.038;16.974;2023-04-25T10:42:14;99255.19;;;13.07;62.36
23635;BME280;11994;51.038;16.974;2023-04-25T10:44:39;99255.42;;;13.02;62.40
23635;BME280;11994;51.038;16.974;2023-04-25T10:47:06;99256.14;;;12.94;62.75
23635;BME280;11994;51.038;16.974;2023-04-25T10:49:32;99259.48;;;12.80;62.02
23635;BME280;11994;51.038;16.974;2023-04-25T10:52:17;99259.98;;;12.69;62.69
23635;BME280;11994;51.038;16.974;2023-04-25T10:54:47;99257.80;;;12.86;63.65
23635;BME280;11994;51.038;16.974;2023-04-25T10:57:26;99258.23;;;13.09;63.43
23635;BME280;11994;51.038;16.974;2023-04-25T10:59:51;99250.39;;;13.15;62.41
23635;BME280;11994;51.038;16.974;2023-04-25T11:02:16;99255.72;;;13.14;61.68
23635;BME280;11994;51.038;16.974;2023-04-25T11:04:42;99250.13;;;13.14;61.91
23635;BME280;11994;51.038;16.974;2023-04-25T11:07:10;99249.89;;;13.15;61.77
23635;BME280;11994;51.038;16.974;2023-04-25T11:09:39;99250.58;;;13.11;61.76
23635;BME280;11994;51.038;16.974;2023-04-25T11:12:06;99252.30;;;13.05;61.51
23635;BME280;11994;51.038;16.974;2023-04-25T11:14:32;99249.28;;;12.99;61.42
23635;BME280;11994;51.038;16.974;2023-04-25T11:16:57;99250.88;;;12.95;61.45
23635;BME280;11994;51.038;16.974;2023-04-25T11:19:23;99256.80;;;12.91;61.39
23635;BME280;11994;51.038;16.974;2023-04-25T11:21:49;99255.55;;;12.92;61.40
23635;BME280;11994;51.038;16.974;2023-04-25T11:24:18;99255.29;;;12.98;61.79
23635;BME280;11994;51.038;16.974;2023-04-25T11:26:46;99259.56;;;13.04;61.13
23635;BME280;11994;51.038;16.974;2023-04-25T11:29:12;99260.45;;;13.07;61.20
23635;BME280;11994;51.038;16.974;2023-04-25T11:31:37;99260.63;;;13.11;60.79
23635;BME280;11994;51.038;16.974;2023-04-25T11:34:03;99262.09;;;13.09;60.22
23635;BME280;11994;51.038;16.974;2023-04-25T11:36:28;99263.44;;;13.04;60.05
23635;BME280;11994;51.038;16.974;2023-04-25T11:38:53;99266.84;;;13.02;60.33
23635;BME280;11994;51.038;16.974;2023-04-25T11:41:21;99264.17;;;13.03;60.06
23635;BME280;11994;51.038;16.974;2023-04-25T11:43:47;99266.47;;;13.06;60.16
23635;BME280;11994;51.038;16.974;2023-04-25T11:46:13;99263.45;;;13.10;59.89
23635;BME280;11994;51.038;16.974;2023-04-25T11:48:39;99264.86;;;13.14;59.80
23635;BME280;11994;51.038;16.974;2023-04-25T11:51:05;99268.61;;;13.19;59.38
23635;BME280;11994;51.038;16.974;2023-04-25T11:53:30;99265.77;;;13.24;59.27
23635;BME280;11994;51.038;16.974;2023-04-25T11:55:55;99267.33;;;13.31;59.43
23635;BME280;11994;51.038;16.974;2023-04-25T11:58:21;99264.56;;;13.37;59.07
23635;BME280;11994;51.038;16.974;2023-04-25T12:00:46;99271.69;;;13.39;58.98
23635;BME280;11994;51.038;16.974;2023-04-25T12:03:12;99266.45;;;13.38;59.02
23635;BME280;11994;51.038;16.974;2023-04-25T12:05:37;99266.71;;;13.36;58.29
23635;BME280;11994;51.038;16.974;2023-04-25T12:08:12;99270.08;;;13.32;58.15
23635;BME280;11994;51.038;16.974;2023-04-25T12:10:38;99265.90;;;13.28;57.58
23635;BME280;11994;51.038;16.974;2023-04-25T12:13:23;99267.63;;;13.29;57.06
23635;BME280;11994;51.038;16.974;2023-04-25T12:15:49;99267.34;;;13.34;57.38
23635;BME280;11994;51.038;16.974;2023-04-25T12:18:14;99267.61;;;13.39;57.03
23635;BME280;11994;51.038;16.974;2023-04-25T12:20:41;99269.45;;;13.45;57.06
23635;BME280;11994;51.038;16.974;2023-04-25T12:23:06;99268.98;;;13.47;56.40
23635;BME280;11994;51.038;16.974;2023-04-25T12:25:42;99273.48;;;13.42;56.60
23635;BME280;11994;51.038;16.974;2023-04-25T12:28:12;99272.24;;;13.35;56.62
23635;BME280;11994;51.038;16.974;2023-04-25T12:33:21;99280.16;;;13.20;57.14
23635;BME280;11994;51.038;16.974;2023-04-25T12:35:47;99275.48;;;13.12;56.93
23635;BME280;11994;51.038;16.974;2023-04-25T12:38:59;99280.21;;;13.09;57.11
23635;BME280;11994;51.038;16.974;2023-04-25T12:40:59;99282.09;;;13.13;57.57
23635;BME280;11994;51.038;16.974;2023-04-25T12:43:25;99280.16;;;13.24;58.07
23635;BME280;11994;51.038;16.974;2023-04-25T12:45:51;99277.30;;;13.49;58.40
23635;BME280;11994;51.038;16.974;2023-04-25T12:48:17;99277.33;;;13.69;57.56
23635;BME280;11994;51.038;16.974;2023-04-25T12:50:42;99276.08;;;13.69;56.75
23635;BME280;11994;51.038;16.974;2023-04-25T12:53:08;99275.19;;;13.60;56.70